createdAt,value
2024-02-03T00:01:45.902Z,-4.83
2024-02-03T00:04:14.501Z,-4.99
2024-02-03T00:06:42.882Z,-5.26
2024-02-03T00:09:10.704Z,-5.53
2024-02-03T00:11:39.085Z,-5.67
2024-02-03T00:14:06.696Z,-5.79
2024-02-03T00:16:34.471Z,-5.92
2024-02-03T00:19:02.548Z,-5.99
2024-02-03T00:21:30.979Z,-6.06
2024-02-03T00:23:58.858Z,-6.22
2024-02-03T00:26:26.592Z,-5.88
2024-02-03T00:28:55.770Z,-5.68
2024-02-03T00:31:23.216Z,-5.57
2024-02-03T00:33:51.518Z,-5.61
2024-02-03T00:36:26.022Z,-5.67
2024-02-03T00:38:54.265Z,-5.72
2024-02-03T00:41:22.037Z,-5.93
2024-02-03T00:43:49.874Z,-6.26
2024-02-03T00:46:18.483Z,-6.62
2024-02-03T00:48:46.322Z,-6.63
2024-02-03T00:51:14.050Z,-6.60
2024-02-03T00:53:43.026Z,-6.52
2024-02-03T00:56:12.315Z,-6.18
2024-02-03T00:58:41.273Z,-6.17
2024-02-03T01:01:09.506Z,-6.11
2024-02-03T01:03:37.459Z,-6.04
2024-02-03T01:06:05.831Z,-5.97
2024-02-03T01:08:33.445Z,-5.96
2024-02-03T01:11:00.951Z,-5.99
2024-02-03T01:13:28.688Z,-6.07
2024-02-03T01:15:56.940Z,-6.41
2024-02-03T01:18:24.924Z,-6.67
2024-02-03T01:20:53.492Z,-6.80
2024-02-03T01:23:21.411Z,-6.70
2024-02-03T01:25:50.894Z,-6.54
2024-02-03T01:28:18.473Z,-6.50
2024-02-03T01:30:46.128Z,-6.40
2024-02-03T01:33:13.992Z,-6.39
2024-02-03T01:35:41.700Z,-6.49
2024-02-03T01:38:09.251Z,-6.72
2024-02-03T01:40:39.100Z,-6.89
2024-02-03T01:43:09.479Z,-6.85
2024-02-03T01:45:37.390Z,-6.90
2024-02-03T01:48:05.923Z,-6.97
2024-02-03T01:50:34.323Z,-6.95
2024-02-03T01:53:04.675Z,-6.92
2024-02-03T01:55:33.299Z,-6.98
2024-02-03T01:58:02.631Z,-6.98
2024-02-03T02:00:32.232Z,-6.99
2024-02-03T02:03:00.161Z,-7.16
2024-02-03T02:05:30.041Z,-7.16
2024-02-03T02:07:58.036Z,-7.19
2024-02-03T02:10:26.031Z,-7.18
2024-02-03T02:12:54.177Z,-7.20
2024-02-03T02:15:22.018Z,-7.11
2024-02-03T02:17:50.682Z,-7.21
2024-02-03T02:20:18.652Z,-7.24
2024-02-03T02:22:46.323Z,-7.19
2024-02-03T02:25:14.147Z,-7.10
2024-02-03T02:27:42.025Z,-7.08
2024-02-03T02:30:10.017Z,-7.14
2024-02-03T02:32:38.068Z,-7.30
2024-02-03T02:35:06.133Z,-7.35
2024-02-03T02:37:34.763Z,-7.14
2024-02-03T02:40:02.801Z,-7.19
2024-02-03T02:42:30.753Z,-7.23
2024-02-03T02:44:58.523Z,-7.17
2024-02-03T02:47:26.206Z,-7.18
2024-02-03T02:49:54.068Z,-7.05
2024-02-03T02:52:21.833Z,-6.99
2024-02-03T02:54:49.584Z,-7.03
2024-02-03T02:57:17.081Z,-7.04
2024-02-03T02:59:44.667Z,-7.14
2024-02-03T03:02:12.593Z,-7.15
2024-02-03T03:04:40.091Z,-7.12
2024-02-03T03:07:07.797Z,-7.05
2024-02-03T03:09:36.160Z,-7.05
2024-02-03T03:12:04.206Z,-7.11
2024-02-03T03:14:32.302Z,-7.32
2024-02-03T03:17:00.609Z,-7.37
2024-02-03T03:19:28.182Z,-7.45
2024-02-03T03:21:56.055Z,-7.60
2024-02-03T03:24:23.726Z,-7.60
2024-02-03T03:26:51.554Z,-7.66
2024-02-03T03:29:19.131Z,-7.74
2024-02-03T03:31:46.743Z,-7.73
2024-02-03T03:34:14.499Z,-7.69
2024-02-03T03:36:42.263Z,-7.39
2024-02-03T03:39:10.568Z,-7.19
2024-02-03T03:41:38.115Z,-6.87
2024-02-03T03:44:05.841Z,-6.66
2024-02-03T03:46:33.623Z,-6.49
2024-02-03T03:49:01.557Z,-6.30
2024-02-03T03:51:29.414Z,-6.15
2024-02-03T03:53:57.638Z,-6.04
2024-02-03T03:56:25.121Z,-5.97
2024-02-03T03:58:52.839Z,-5.88
2024-02-03T04:01:20.386Z,-5.81
2024-02-03T04:03:48.269Z,-5.72
2024-02-03T04:06:16.109Z,-5.75
2024-02-03T04:08:43.856Z,-5.79
2024-02-03T04:11:11.490Z,-5.82
2024-02-03T04:13:41.386Z,-5.82
2024-02-03T04:16:09.499Z,-5.84
2024-02-03T04:18:37.562Z,-5.97
2024-02-03T04:21:05.725Z,-6.00
2024-02-03T04:23:33.463Z,-6.16
2024-02-03T04:26:01.262Z,-6.11
2024-02-03T04:28:29.144Z,-6.15
2024-02-03T04:31:00.015Z,-6.21
2024-02-03T04:33:27.807Z,-6.32
2024-02-03T04:35:55.612Z,-6.63
2024-02-03T04:38:23.549Z,-6.91
2024-02-03T04:40:51.195Z,-7.12
2024-02-03T04:43:19.311Z,-7.19
2024-02-03T04:45:46.878Z,-7.38
2024-02-03T04:48:14.678Z,-7.55
2024-02-03T04:50:42.702Z,-7.45
2024-02-03T04:53:10.675Z,-7.48
2024-02-03T04:55:38.040Z,-7.58
2024-02-03T04:58:05.697Z,-7.65
2024-02-03T05:00:33.352Z,-7.68
2024-02-03T05:03:01.146Z,-7.85
2024-02-03T05:05:29.269Z,-7.78
2024-02-03T05:07:56.919Z,-7.74
2024-02-03T05:10:24.669Z,-7.55
2024-02-03T05:12:52.390Z,-7.30
2024-02-03T05:15:20.253Z,-7.50
2024-02-03T05:17:48.071Z,-7.54
2024-02-03T05:20:16.244Z,-7.58
2024-02-03T05:22:44.075Z,-7.54
2024-02-03T05:25:12.668Z,-7.33
2024-02-03T05:27:40.536Z,-7.18
2024-02-03T05:30:09.015Z,-7.25
2024-02-03T05:32:36.518Z,-7.06
2024-02-03T05:35:04.418Z,-6.99
2024-02-03T05:37:32.402Z,-7.00
2024-02-03T05:40:00.383Z,-6.97
2024-02-03T05:42:31.491Z,-6.77
2024-02-03T05:45:00.069Z,-6.75
2024-02-03T05:47:27.969Z,-6.57
2024-02-03T05:49:55.554Z,-6.48
2024-02-03T05:52:23.340Z,-6.44
2024-02-03T05:54:51.607Z,-6.34
2024-02-03T05:57:19.466Z,-6.27
2024-02-03T05:59:51.267Z,-6.10
2024-02-03T06:02:19.891Z,-5.84
2024-02-03T06:04:48.351Z,-5.49
2024-02-03T06:07:17.972Z,-5.19
2024-02-03T06:09:46.273Z,-5.07
2024-02-03T06:12:13.927Z,-4.85
2024-02-03T06:14:42.549Z,-4.50
2024-02-03T06:17:10.147Z,-4.18
2024-02-03T06:19:42.372Z,-4.04
2024-02-03T06:22:12.489Z,-3.86
2024-02-03T06:24:40.445Z,-3.78
2024-02-03T06:27:10.363Z,-3.92
2024-02-03T06:29:38.084Z,-3.81
2024-02-03T06:32:05.928Z,-3.65
2024-02-03T06:34:33.842Z,-3.26
2024-02-03T06:37:02.080Z,-3.03
2024-02-03T06:39:30.327Z,-2.81
2024-02-03T06:41:58.570Z,-2.68
2024-02-03T06:44:26.484Z,-2.58
2024-02-03T06:46:54.583Z,-2.53
2024-02-03T06:49:22.371Z,-2.45
2024-02-03T06:51:50.352Z,-2.32
2024-02-03T06:54:18.012Z,-2.19
2024-02-03T06:56:45.697Z,-2.08
2024-02-03T06:59:14.364Z,-1.98
2024-02-03T07:01:41.934Z,-2.09
2024-02-03T07:04:09.798Z,-1.86
2024-02-03T07:06:37.500Z,-2.16
2024-02-03T07:09:05.096Z,-1.49
2024-02-03T07:11:33.017Z,-1.46
2024-02-03T07:14:00.727Z,-1.33
2024-02-03T07:16:28.965Z,-1.10
2024-02-03T07:18:56.841Z,-0.85
2024-02-03T07:21:25.412Z,-0.76
2024-02-03T07:23:52.805Z,-0.66
2024-02-03T07:26:20.522Z,-0.50
2024-02-03T07:28:49.932Z,-0.41
2024-02-03T07:31:28.691Z,-0.26
2024-02-03T07:33:59.425Z,-0.09
2024-02-03T07:36:27.255Z,-0.11
2024-02-03T07:38:55.673Z,-0.32
2024-02-03T07:41:23.257Z,-0.54
2024-02-03T07:43:50.618Z,-0.92
2024-02-03T07:46:18.310Z,-1.01
2024-02-03T07:48:46.649Z,-1.52
2024-02-03T07:51:14.678Z,-1.37
2024-02-03T07:53:43.451Z,-1.43
2024-02-03T07:56:12.134Z,-1.10
2024-02-03T07:58:40.110Z,-0.74
2024-02-03T08:01:08.042Z,-0.40
2024-02-03T08:03:36.013Z,-0.19
2024-02-03T08:06:04.732Z,-0.26
2024-02-03T08:08:33.336Z,0.08
2024-02-03T08:11:01.196Z,0.28
2024-02-03T08:13:29.188Z,0.61
2024-02-03T08:15:57.725Z,0.75
2024-02-03T08:18:25.414Z,0.54
2024-02-03T08:20:52.944Z,0.64
2024-02-03T08:23:20.626Z,0.84
2024-02-03T08:25:48.079Z,1.15
2024-02-03T08:28:15.952Z,0.85
2024-02-03T08:30:43.936Z,0.52
2024-02-03T08:33:14.200Z,0.66
2024-02-03T08:35:42.460Z,0.83
2024-02-03T08:38:10.665Z,1.01
2024-02-03T08:40:38.575Z,0.75
2024-02-03T08:43:06.731Z,-0.12
2024-02-03T08:45:34.149Z,-0.09
2024-02-03T08:48:02.188Z,0.04
2024-02-03T08:50:30.309Z,-0.03
2024-02-03T08:52:58.701Z,0.07
2024-02-03T08:55:26.000Z,0.12
2024-02-03T08:57:53.793Z,-0.39
2024-02-03T09:00:22.261Z,-0.49
2024-02-03T09:02:49.853Z,-0.62
2024-02-03T09:05:17.940Z,-0.36
2024-02-03T09:07:46.633Z,-0.14
2024-02-03T09:10:14.386Z,-0.03
2024-02-03T09:12:42.284Z,-0.40
2024-02-03T09:15:10.653Z,0.04
2024-02-03T09:17:38.574Z,0.21
2024-02-03T09:20:07.627Z,0.38
2024-02-03T09:22:35.743Z,0.48
2024-02-03T09:25:03.207Z,0.40
2024-02-03T09:27:30.894Z,0.58
2024-02-03T09:29:58.526Z,0.88
2024-02-03T09:32:30.640Z,0.52
2024-02-03T09:34:58.834Z,0.74
2024-02-03T09:39:58.519Z,0.62
2024-02-03T09:42:25.953Z,0.77
2024-02-03T09:44:54.210Z,1.16
2024-02-03T09:47:21.871Z,1.10
2024-02-03T09:49:50.155Z,0.72
2024-02-03T09:52:19.430Z,0.55
2024-02-03T09:54:47.948Z,0.40
2024-02-03T09:57:16.112Z,0.11
2024-02-03T09:59:43.675Z,0.02
2024-02-03T10:02:11.454Z,-0.11
2024-02-03T10:04:40.905Z,-0.42
2024-02-03T10:07:08.894Z,-0.12
2024-02-03T10:12:18.908Z,0.67
2024-02-03T10:14:47.855Z,0.58
2024-02-03T10:17:22.813Z,0.53
2024-02-03T10:19:50.782Z,0.35
2024-02-03T10:22:18.810Z,0.29
2024-02-03T10:24:46.536Z,0.24
2024-02-03T10:27:14.144Z,-0.13
2024-02-03T10:29:41.604Z,-0.30
2024-02-03T10:32:10.030Z,-0.34
2024-02-03T10:34:38.719Z,-0.03
2024-02-03T10:37:06.592Z,0.09
2024-02-03T10:39:34.300Z,0.14
2024-02-03T10:42:03.072Z,0.02
2024-02-03T10:44:33.218Z,0.18
2024-02-03T10:47:03.328Z,-0.22
2024-02-03T10:49:35.302Z,0.34
2024-02-03T10:52:10.372Z,0.37
2024-02-03T10:54:39.825Z,0.08
2024-02-03T10:57:12.165Z,0.17
2024-02-03T10:59:40.285Z,0.06
2024-02-03T11:02:25.754Z,0.03
2024-02-03T11:04:54.022Z,0.34
2024-02-03T11:07:32.259Z,0.66
2024-02-03T11:10:05.137Z,0.96
2024-02-03T11:12:36.876Z,0.86
2024-02-03T11:15:13.953Z,1.09
2024-02-03T11:17:45.863Z,0.43
2024-02-03T11:20:20.963Z,0.39
2024-02-03T11:22:56.196Z,0.18
2024-02-03T11:25:25.656Z,0.41
2024-02-03T11:27:53.493Z,0.07
2024-02-03T11:30:21.679Z,-0.23
2024-02-03T11:32:49.638Z,-0.16
2024-02-03T11:35:19.011Z,-0.07
2024-02-03T11:37:47.418Z,0.19
2024-02-03T11:40:15.594Z,0.19
2024-02-03T11:42:46.600Z,0.42
2024-02-03T11:45:16.380Z,0.34
2024-02-03T11:47:44.642Z,0.43
2024-02-03T11:50:12.247Z,0.24
2024-02-03T11:52:46.802Z,0.18
2024-02-03T11:55:14.727Z,0.21
2024-02-03T11:57:44.002Z,-0.41
2024-02-03T12:00:14.895Z,-0.43
2024-02-03T12:02:43.141Z,-0.15
2024-02-03T12:05:14.375Z,-0.12
2024-02-03T12:07:43.133Z,-0.21
2024-02-03T12:10:11.229Z,-0.05
2024-02-03T12:12:41.108Z,0.05
2024-02-03T12:15:10.540Z,0.14
2024-02-03T12:17:39.922Z,0.23
2024-02-03T12:20:28.112Z,0.44
2024-02-03T12:22:58.914Z,0.41
2024-02-03T12:25:27.476Z,0.31
2024-02-03T12:27:55.885Z,0.19
2024-02-03T12:30:24.089Z,-0.05
2024-02-03T12:32:51.722Z,0.08
2024-02-03T12:35:19.538Z,0.05
2024-02-03T12:37:47.451Z,-0.07
2024-02-03T12:40:15.165Z,-0.30
2024-02-03T12:42:43.217Z,-0.17
2024-02-03T12:45:11.174Z,-0.36
2024-02-03T12:47:43.154Z,-0.39
2024-02-03T12:50:11.785Z,-0.59
2024-02-03T12:52:39.427Z,-0.41
2024-02-03T12:55:08.816Z,-0.28
2024-02-03T12:57:36.551Z,-0.32
2024-02-03T13:00:04.181Z,-0.32
2024-02-03T13:02:32.242Z,-0.58
2024-02-03T13:05:00.401Z,-1.16
2024-02-03T13:07:28.226Z,-1.49
2024-02-03T13:09:55.923Z,-1.35
2024-02-03T13:12:24.986Z,-1.14
2024-02-03T13:14:52.641Z,-0.91
2024-02-03T13:17:21.217Z,-0.95
2024-02-03T13:19:49.063Z,-0.85
2024-02-03T13:22:17.003Z,-0.69
2024-02-03T13:24:44.922Z,-0.73
2024-02-03T13:27:13.763Z,-0.66
2024-02-03T13:29:41.486Z,-0.73
2024-02-03T13:32:09.664Z,-0.99
2024-02-03T13:34:37.480Z,-1.17
2024-02-03T13:37:05.659Z,-1.19
2024-02-03T13:39:35.502Z,-1.41
2024-02-03T13:42:05.263Z,-1.68
2024-02-03T13:44:32.613Z,-1.85
2024-02-03T13:47:00.403Z,-1.87
2024-02-03T13:49:28.458Z,-1.86
2024-02-03T13:51:56.327Z,-1.81
2024-02-03T13:54:23.720Z,-1.99
2024-02-03T13:56:51.446Z,-1.92
2024-02-03T13:59:19.381Z,-1.83
2024-02-03T14:01:47.038Z,-1.61
2024-02-03T14:04:14.702Z,-1.81
2024-02-03T14:06:43.865Z,-1.89
2024-02-03T14:09:12.040Z,-2.00
2024-02-03T14:11:50.458Z,-1.82
2024-02-03T14:14:23.663Z,-1.99
2024-02-03T14:16:51.603Z,-2.01
2024-02-03T14:19:20.083Z,-2.01
2024-02-03T14:21:48.156Z,-2.00
2024-02-03T14:24:15.872Z,-2.09
2024-02-03T14:26:44.243Z,-2.01
2024-02-03T14:29:11.758Z,-2.06
2024-02-03T14:31:39.200Z,-2.15
2024-02-03T14:34:06.643Z,-2.10
2024-02-03T14:36:34.868Z,-2.10
2024-02-03T14:39:02.382Z,-2.11
2024-02-03T14:41:29.911Z,-1.97
2024-02-03T14:43:57.431Z,-1.92
2024-02-03T14:46:25.568Z,-1.87
2024-02-03T14:48:53.729Z,-1.80
2024-02-03T14:51:21.631Z,-1.77
2024-02-03T14:53:49.441Z,-1.69
2024-02-03T14:56:17.332Z,-1.58
2024-02-03T14:58:44.991Z,-1.54
2024-02-03T15:01:12.712Z,-1.56
2024-02-03T15:03:40.778Z,-1.54
2024-02-03T15:06:08.496Z,-1.36
2024-02-03T15:08:36.470Z,-1.20
2024-02-03T15:11:04.634Z,-1.11
2024-02-03T15:13:32.136Z,-1.24
2024-02-03T15:15:59.986Z,-1.37
2024-02-03T15:18:28.066Z,-1.50
2024-02-03T15:20:56.840Z,-1.64
2024-02-03T15:23:24.411Z,-1.85
2024-02-03T15:25:52.352Z,-2.02
2024-02-03T15:28:20.467Z,-2.04
2024-02-03T15:30:48.741Z,-2.04
2024-02-03T15:33:19.583Z,-2.00
2024-02-03T15:35:47.804Z,-1.85
2024-02-03T15:38:15.877Z,-1.76
2024-02-03T15:40:43.433Z,-1.80
2024-02-03T15:43:11.373Z,-1.86
2024-02-03T15:45:39.372Z,-2.00
2024-02-03T15:48:07.391Z,-2.06
2024-02-03T15:50:35.408Z,-1.97
2024-02-03T15:53:04.218Z,-2.17
2024-02-03T15:55:31.921Z,-1.80
2024-02-03T15:58:01.419Z,-1.73
2024-02-03T16:00:29.427Z,-1.71
2024-02-03T16:02:57.278Z,-1.72
2024-02-03T16:05:25.059Z,-1.65
2024-02-03T16:07:53.064Z,-1.64
2024-02-03T16:10:21.238Z,-1.67
2024-02-03T16:12:49.121Z,-1.64
2024-02-03T16:15:17.038Z,-1.62
2024-02-03T16:17:44.845Z,-1.66
2024-02-03T16:20:15.912Z,-1.63
2024-02-03T16:22:46.124Z,-1.67
2024-02-03T16:25:14.186Z,-1.79
2024-02-03T16:27:44.717Z,-1.67
2024-02-03T16:30:16.812Z,-1.67
2024-02-03T16:32:45.537Z,-1.69
2024-02-03T16:35:13.641Z,-1.72
2024-02-03T16:37:41.597Z,-1.77
2024-02-03T16:40:10.118Z,-1.84
2024-02-03T16:42:37.975Z,-1.93
2024-02-03T16:45:06.198Z,-1.96
2024-02-03T16:47:34.156Z,-2.03
2024-02-03T16:50:01.659Z,-2.06
2024-02-03T16:52:30.798Z,-2.12
2024-02-03T16:54:58.819Z,-2.19
2024-02-03T16:57:28.318Z,-2.21
2024-02-03T16:59:56.723Z,-2.31
2024-02-03T17:02:26.732Z,-2.36
2024-02-03T17:04:54.627Z,-2.44
2024-02-03T17:07:22.289Z,-2.34
2024-02-03T17:09:50.930Z,-2.23
2024-02-03T17:12:18.626Z,-2.13
2024-02-03T17:14:46.148Z,-2.07
2024-02-03T17:17:13.533Z,-2.04
2024-02-03T17:19:41.414Z,-2.05
2024-02-03T17:22:09.478Z,-2.11
2024-02-03T17:24:37.154Z,-2.10
2024-02-03T17:27:04.915Z,-2.04
2024-02-03T17:29:32.803Z,-2.11
2024-02-03T17:32:00.712Z,-2.04
2024-02-03T17:34:29.306Z,-1.98
2024-02-03T17:36:57.135Z,-1.93
2024-02-03T17:39:25.257Z,-1.95
2024-02-03T17:41:53.070Z,-2.00
2024-02-03T17:44:20.991Z,-2.02
2024-02-03T17:46:48.593Z,-2.21
2024-02-03T17:49:16.394Z,-2.41
2024-02-03T17:51:44.482Z,-2.50
2024-02-03T17:54:12.280Z,-2.57
2024-02-03T17:56:41.290Z,-2.43
2024-02-03T17:59:10.092Z,-2.16
2024-02-03T18:01:37.719Z,-1.97
2024-02-03T18:04:05.337Z,-1.87
2024-02-03T18:06:33.564Z,-1.97
2024-02-03T18:09:01.549Z,-2.19
2024-02-03T18:11:30.483Z,-2.33
2024-02-03T18:13:59.114Z,-2.44
2024-02-03T18:16:27.108Z,-2.51
2024-02-03T18:18:54.593Z,-2.54
2024-02-03T18:21:22.434Z,-2.54
2024-02-03T18:23:50.205Z,-2.58
2024-02-03T18:26:17.978Z,-2.47
2024-02-03T18:28:46.160Z,-2.25
2024-02-03T18:31:14.063Z,-2.27
2024-02-03T18:33:44.088Z,-2.37
2024-02-03T18:36:12.204Z,-2.56
2024-02-03T18:38:39.775Z,-2.68
2024-02-03T18:41:07.377Z,-2.72
2024-02-03T18:43:35.013Z,-2.70
2024-02-03T18:46:03.190Z,-2.62
2024-02-03T18:48:30.826Z,-2.50
2024-02-03T18:50:58.736Z,-2.47
2024-02-03T18:53:30.341Z,-2.52
2024-02-03T18:55:58.106Z,-2.52
2024-02-03T18:58:28.220Z,-2.50
2024-02-03T19:00:57.394Z,-2.42
2024-02-03T19:03:25.812Z,-2.42
2024-02-03T19:05:53.166Z,-2.62
2024-02-03T19:08:20.762Z,-2.68
2024-02-03T19:10:49.354Z,-2.62
2024-02-03T19:13:17.706Z,-2.47
2024-02-03T19:15:45.872Z,-2.40
2024-02-03T19:18:13.708Z,-2.39
2024-02-03T19:20:41.607Z,-2.43
2024-02-03T19:23:09.932Z,-2.41
2024-02-03T19:25:38.087Z,-2.41
2024-02-03T19:28:05.756Z,-2.45
2024-02-03T19:30:33.709Z,-2.49
2024-02-03T19:33:02.117Z,-2.63
2024-02-03T19:35:29.719Z,-2.62
2024-02-03T19:38:02.130Z,-2.30
2024-02-03T19:40:29.706Z,-2.22
2024-02-03T19:42:57.335Z,-2.48
2024-02-03T19:45:25.088Z,-2.43
2024-02-03T19:47:52.914Z,-2.48
2024-02-03T19:50:22.414Z,-2.39
2024-02-03T19:52:51.838Z,-2.36
2024-02-03T19:55:20.505Z,-2.33
2024-02-03T19:57:49.021Z,-2.37
2024-02-03T20:00:17.832Z,-2.46
2024-02-03T20:02:45.589Z,-2.55
2024-02-03T20:05:14.102Z,-2.49
2024-02-03T20:07:42.339Z,-2.44
2024-02-03T20:10:10.963Z,-2.42
2024-02-03T20:12:40.565Z,-2.55
2024-02-03T20:15:08.898Z,-2.56
2024-02-03T20:17:38.249Z,-2.62
2024-02-03T20:20:06.820Z,-2.96
2024-02-03T20:22:34.768Z,-3.05
2024-02-03T20:25:02.958Z,-3.08
2024-02-03T20:27:30.742Z,-3.10
2024-02-03T20:29:58.208Z,-3.16
2024-02-03T20:32:26.177Z,-3.07
2024-02-03T20:34:53.833Z,-2.99
2024-02-03T20:37:21.789Z,-2.89
2024-02-03T20:39:49.673Z,-2.65
2024-02-03T20:42:19.407Z,-2.42
2024-02-03T20:44:47.014Z,-2.29
2024-02-03T20:47:14.895Z,-2.23
2024-02-03T20:49:42.586Z,-2.01
2024-02-03T20:52:10.826Z,-1.87
2024-02-03T20:54:38.888Z,-1.78
2024-02-03T20:57:06.672Z,-2.13
2024-02-03T20:59:34.578Z,-1.67
2024-02-03T21:02:02.619Z,-1.73
2024-02-03T21:04:30.521Z,-1.78
2024-02-03T21:06:59.618Z,-1.80
2024-02-03T21:09:28.003Z,-1.81
2024-02-03T21:11:55.891Z,-1.83
2024-02-03T21:14:24.089Z,-1.82
2024-02-03T21:16:52.277Z,-1.84
2024-02-03T21:19:20.049Z,-1.85
2024-02-03T21:21:47.855Z,-1.82
2024-02-03T21:24:16.222Z,-1.80
2024-02-03T21:26:50.756Z,-1.76
2024-02-03T21:29:18.457Z,-1.76
2024-02-03T21:31:46.017Z,-1.87
2024-02-03T21:34:13.698Z,-1.89
2024-02-03T21:36:41.458Z,-1.81
2024-02-03T21:39:11.892Z,-1.77
2024-02-03T21:41:40.491Z,-1.85
2024-02-03T21:44:08.579Z,-2.02
2024-02-03T21:46:36.384Z,-2.05
2024-02-03T21:49:04.448Z,-1.95
2024-02-03T21:51:32.124Z,-1.86
2024-02-03T21:54:00.082Z,-1.82
2024-02-03T21:56:27.678Z,-1.85
2024-02-03T21:58:55.319Z,-1.86
2024-02-03T22:01:23.592Z,-1.83
2024-02-03T22:03:54.018Z,-1.78
2024-02-03T22:06:25.720Z,-1.82
2024-02-03T22:08:53.532Z,-1.72
2024-02-03T22:11:21.362Z,-1.80
2024-02-03T22:13:48.910Z,-1.64
2024-02-03T22:16:16.243Z,-1.66
2024-02-03T22:18:43.969Z,-1.82
2024-02-03T22:21:11.943Z,-1.82
2024-02-03T22:23:40.005Z,-1.78
2024-02-03T22:26:07.626Z,-1.72
2024-02-03T22:28:35.141Z,-1.67
2024-02-03T22:31:03.266Z,-1.68
2024-02-03T22:33:31.391Z,-1.71
2024-02-03T22:35:58.989Z,-1.71
2024-02-03T22:38:27.022Z,-1.70
2024-02-03T22:40:54.959Z,-1.80
2024-02-03T22:43:22.416Z,-1.88
2024-02-03T22:45:50.334Z,-1.85
2024-02-03T22:48:18.578Z,-1.80
2024-02-03T22:50:46.285Z,-1.78
2024-02-03T22:53:13.967Z,-1.79
2024-02-03T22:55:41.608Z,-1.76
2024-02-03T22:58:09.388Z,-1.76
2024-02-03T23:00:37.737Z,-1.71
2024-02-03T23:03:06.975Z,-1.69
2024-02-03T23:05:34.716Z,-1.81
2024-02-03T23:08:02.490Z,-1.94
2024-02-03T23:10:30.234Z,-1.91
2024-02-03T23:12:58.102Z,-1.85
2024-02-03T23:15:25.874Z,-1.87
2024-02-03T23:17:54.655Z,-1.77
2024-02-03T23:20:23.919Z,-1.78
2024-02-03T23:22:51.537Z,-1.75
2024-02-03T23:25:19.354Z,-1.75
2024-02-03T23:27:46.962Z,-1.76
2024-02-03T23:30:14.700Z,-1.79
2024-02-03T23:32:42.637Z,-1.87
2024-02-03T23:35:10.746Z,-1.88
2024-02-03T23:37:38.410Z,-2.07
2024-02-03T23:40:08.406Z,-2.24
2024-02-03T23:42:36.428Z,-2.44
2024-02-03T23:45:04.762Z,-2.56
2024-02-03T23:47:33.283Z,-2.54
2024-02-03T23:50:00.810Z,-2.52
2024-02-03T23:52:28.604Z,-2.65
2024-02-03T23:54:56.272Z,-2.73
2024-02-03T23:57:24.074Z,-2.78
2024-02-03T23:59:51.890Z,-2.80
